Airport View

Enter AWOS ICAO identifier for current METAR.

ex. KFNL

KGRB 120453Z 00000KT 10SM OVC110 M14/M19 A3049 RMK AO2 SLP343 T11441194

12 Dec 2019 05:47

Phone: 920-494-7140

Other Area AWOS: KATW - KOCQ - KEZS - KCLI

TAF KGRB 112326Z 1200/1224 26006KT P6SM SCT250 FM120400 18002KT P6SM BKN080 FM121200 11005KT 6SM -SN OVC060 FM121500 12007KT 4SM -SN OVC026 FM121600 16008KT 1 1/2SM -SN OVC022 FM122200 23006KT 4SM -SN OVC011